createdAt,value
2023-03-01T00:01:38.799Z,-3.00
2023-03-01T00:04:05.494Z,-3.10
2023-03-01T00:06:32.447Z,-3.20
2023-03-01T00:08:59.342Z,-3.30
2023-03-01T00:11:29.488Z,-3.40
2023-03-01T00:13:59.045Z,-3.40
2023-03-01T00:16:47.418Z,-3.50
2023-03-01T00:19:17.956Z,-3.50
2023-03-01T00:21:45.054Z,-3.30
2023-03-01T00:24:12.101Z,-3.10
2023-03-01T00:26:38.858Z,-2.80
2023-03-01T00:29:05.440Z,-2.60
2023-03-01T00:31:33.739Z,-2.50
2023-03-01T00:34:04.158Z,-2.40
2023-03-01T00:36:34.997Z,-2.50
2023-03-01T00:39:02.085Z,-2.70
2023-03-01T00:41:28.788Z,-2.90
2023-03-01T00:43:56.210Z,-3.10
2023-03-01T00:46:25.518Z,-3.30
2023-03-01T00:48:52.510Z,-3.50
2023-03-01T00:51:21.213Z,-3.70
2023-03-01T00:53:50.618Z,-3.60
2023-03-01T00:56:17.716Z,-3.40
2023-03-01T00:58:44.729Z,-3.30
2023-03-01T01:01:20.373Z,-3.10
2023-03-01T01:03:48.081Z,-3.00
2023-03-01T01:06:23.230Z,-3.10
2023-03-01T01:08:50.732Z,-3.20
2023-03-01T01:11:17.699Z,-3.20
2023-03-01T01:13:46.527Z,-3.40
2023-03-01T01:16:14.204Z,-3.60
2023-03-01T01:18:41.577Z,-3.70
2023-03-01T01:21:12.137Z,-3.90
2023-03-01T01:23:40.334Z,-4.00
2023-03-01T01:26:10.716Z,-4.10
2023-03-01T01:28:37.611Z,-4.20
2023-03-01T01:31:05.521Z,-4.20
2023-03-01T01:33:32.824Z,-4.30
2023-03-01T01:35:59.451Z,-4.30
2023-03-01T01:38:26.069Z,-4.40
2023-03-01T01:40:53.116Z,-4.40
2023-03-01T01:43:33.669Z,-4.50
2023-03-01T01:46:06.004Z,-4.60
2023-03-01T01:48:47.488Z,-4.60
2023-03-01T01:51:20.051Z,-4.40
2023-03-01T01:53:51.588Z,-4.30
2023-03-01T01:56:19.395Z,-4.30
2023-03-01T01:58:48.324Z,-4.30
2023-03-01T02:01:15.113Z,-4.30
2023-03-01T02:03:45.532Z,-4.40
2023-03-01T02:06:21.396Z,-4.50
2023-03-01T02:08:50.385Z,-4.60
2023-03-01T02:11:19.308Z,-4.50
2023-03-01T02:13:49.284Z,-4.60
2023-03-01T02:16:17.602Z,-4.80
2023-03-01T02:18:45.451Z,-4.80
2023-03-01T02:21:31.278Z,-4.90
2023-03-01T02:24:01.708Z,-4.90
2023-03-01T02:26:34.117Z,-4.90
2023-03-01T02:29:01.401Z,-5.00
2023-03-01T02:31:43.100Z,-5.00
2023-03-01T02:34:19.271Z,-4.90
2023-03-01T02:37:05.408Z,-4.70
2023-03-01T02:39:42.683Z,-4.40
2023-03-01T02:42:13.883Z,-3.90
2023-03-01T02:44:40.548Z,-3.50
2023-03-01T02:47:07.753Z,-3.80
2023-03-01T02:49:37.223Z,-4.00
2023-03-01T02:52:27.506Z,-4.20
2023-03-01T02:55:09.969Z,-4.40
2023-03-01T02:57:40.848Z,-4.40
2023-03-01T03:00:20.237Z,-4.30
2023-03-01T03:02:49.915Z,-4.10
2023-03-01T03:05:23.678Z,-3.80
2023-03-01T03:07:53.337Z,-4.00
2023-03-01T03:10:41.977Z,-4.10
2023-03-01T03:13:11.823Z,-4.30
2023-03-01T03:15:39.784Z,-4.60
2023-03-01T03:18:10.624Z,-4.80
2023-03-01T03:20:38.729Z,-4.80
2023-03-01T03:23:05.346Z,-4.90
2023-03-01T03:25:31.954Z,-5.00
2023-03-01T03:27:59.496Z,-5.00
2023-03-01T03:30:29.243Z,-4.90
2023-03-01T03:32:57.695Z,-5.00
2023-03-01T03:35:42.049Z,-5.00
2023-03-01T03:38:16.361Z,-5.00
2023-03-01T03:40:49.485Z,-5.10
2023-03-01T03:43:19.011Z,-5.20
2023-03-01T03:45:47.133Z,-5.10
2023-03-01T03:48:14.775Z,-5.20
2023-03-01T03:50:41.900Z,-5.20
2023-03-01T03:53:11.305Z,-5.30
2023-03-01T03:55:40.019Z,-5.30
2023-03-01T03:58:09.041Z,-5.30
2023-03-01T04:00:41.577Z,-5.40
2023-03-01T04:03:09.711Z,-5.40
2023-03-01T04:05:37.949Z,-5.30
2023-03-01T04:08:07.916Z,-5.30
2023-03-01T04:10:38.210Z,-5.30
2023-03-01T04:13:05.968Z,-5.10
2023-03-01T04:15:33.673Z,-4.70
2023-03-01T04:18:01.081Z,-4.10
2023-03-01T04:20:30.247Z,-3.80
2023-03-01T04:23:11.949Z,-4.00
2023-03-01T04:26:01.135Z,-4.10
2023-03-01T04:28:37.383Z,-4.00
2023-03-01T04:31:17.308Z,-3.80
2023-03-01T04:33:47.564Z,-3.90
2023-03-01T04:36:16.620Z,-3.80
2023-03-01T04:38:48.340Z,-3.90
2023-03-01T04:41:17.456Z,-4.00
2023-03-01T04:43:45.556Z,-4.20
2023-03-01T04:46:15.568Z,-4.30
2023-03-01T04:48:44.211Z,-4.30
2023-03-01T04:51:14.253Z,-4.50
2023-03-01T04:53:42.242Z,-4.70
2023-03-01T04:56:09.076Z,-4.80
2023-03-01T04:58:36.043Z,-5.00
2023-03-01T05:01:15.890Z,-5.10
2023-03-01T05:03:52.599Z,-5.20
2023-03-01T05:06:20.501Z,-5.00
2023-03-01T05:08:47.287Z,-4.80
2023-03-01T05:11:14.098Z,-5.00
2023-03-01T05:13:41.154Z,-5.00
2023-03-01T05:16:11.921Z,-4.60
2023-03-01T05:18:39.088Z,-4.10
2023-03-01T05:21:16.739Z,-3.80
2023-03-01T05:23:43.657Z,-3.50
2023-03-01T05:26:25.881Z,-3.50
2023-03-01T05:28:52.683Z,-3.50
2023-03-01T05:31:19.808Z,-3.40
2023-03-01T05:33:46.557Z,-3.50
2023-03-01T05:36:13.261Z,-3.50
2023-03-01T05:38:39.877Z,-3.50
2023-03-01T05:41:14.286Z,-3.50
2023-03-01T05:43:44.375Z,-3.50
2023-03-01T05:46:13.291Z,-3.50
2023-03-01T05:48:40.031Z,-3.50
2023-03-01T05:51:07.139Z,-3.60
2023-03-01T05:53:33.807Z,-3.60
2023-03-01T05:56:01.141Z,-3.60
2023-03-01T05:58:27.921Z,-3.60
2023-03-01T06:00:57.021Z,-3.50
2023-03-01T06:03:23.836Z,-3.50
2023-03-01T06:05:50.465Z,-3.50
2023-03-01T06:08:17.208Z,-3.50
2023-03-01T06:10:44.450Z,-3.50
2023-03-01T06:13:11.031Z,-3.50
2023-03-01T06:15:37.786Z,-3.50
2023-03-01T06:18:04.575Z,-3.50
2023-03-01T06:20:31.297Z,-3.60
2023-03-01T06:22:58.509Z,-3.70
2023-03-01T06:25:27.714Z,-3.70
2023-03-01T06:27:54.653Z,-3.70
2023-03-01T06:30:24.020Z,-3.70
2023-03-01T06:32:51.271Z,-3.80
2023-03-01T06:35:19.747Z,-3.80
2023-03-01T06:37:48.407Z,-3.70
2023-03-01T06:40:15.869Z,-3.60
2023-03-01T06:42:44.963Z,-3.40
2023-03-01T06:45:12.606Z,-3.30
2023-03-01T06:47:39.430Z,-3.30
2023-03-01T06:50:07.041Z,-3.40
2023-03-01T06:52:33.852Z,-3.50
2023-03-01T06:55:01.107Z,-3.40
2023-03-01T06:57:28.114Z,-3.30
2023-03-01T06:59:54.780Z,-3.30
2023-03-01T07:02:21.902Z,-3.10
2023-03-01T07:04:53.306Z,-3.00
2023-03-01T07:07:20.826Z,-2.90
2023-03-01T07:09:49.190Z,-2.90
2023-03-01T07:12:15.914Z,-2.70
2023-03-01T07:14:44.370Z,-2.70
2023-03-01T07:17:11.112Z,-2.60
2023-03-01T07:19:37.787Z,-2.50
2023-03-01T07:22:05.211Z,-2.50
2023-03-01T07:24:31.866Z,-2.30
2023-03-01T07:26:58.467Z,-2.10
2023-03-01T07:29:25.076Z,-2.00
2023-03-01T07:31:51.791Z,-1.80
2023-03-01T07:34:18.772Z,-1.70
2023-03-01T07:36:46.199Z,-1.60
2023-03-01T07:39:12.956Z,-1.40
2023-03-01T07:41:39.603Z,-1.40
2023-03-01T07:44:06.336Z,-1.30
2023-03-01T07:46:33.493Z,-1.40
2023-03-01T07:49:00.240Z,-1.30
2023-03-01T07:51:26.896Z,-1.30
2023-03-01T07:53:53.530Z,-1.20
2023-03-01T07:56:21.398Z,-1.00
2023-03-01T07:58:49.882Z,-1.00
2023-03-01T08:01:21.020Z,-0.80
2023-03-01T08:03:48.246Z,-0.60
2023-03-01T08:06:17.257Z,-0.60
2023-03-01T08:08:44.468Z,-0.50
2023-03-01T08:11:13.633Z,-0.50
2023-03-01T08:13:40.557Z,-0.30
2023-03-01T08:16:11.331Z,-0.30
2023-03-01T08:18:38.650Z,-0.10
2023-03-01T08:21:16.827Z,0.00
2023-03-01T08:23:44.216Z,0.20
2023-03-01T08:26:12.962Z,0.30
2023-03-01T08:28:40.685Z,0.40
2023-03-01T08:31:23.181Z,0.80
2023-03-01T08:33:55.874Z,1.10
2023-03-01T08:36:27.793Z,1.10
2023-03-01T08:38:54.786Z,1.20
2023-03-01T08:41:21.904Z,1.10
2023-03-01T08:43:48.885Z,1.30
2023-03-01T08:46:15.894Z,1.30
2023-03-01T08:48:44.020Z,1.20
2023-03-01T08:51:12.613Z,1.20
2023-03-01T08:53:39.640Z,1.30
2023-03-01T08:56:06.517Z,1.60
2023-03-01T08:58:33.593Z,1.80
2023-03-01T09:01:01.086Z,2.20
2023-03-01T09:03:28.188Z,2.40
2023-03-01T09:06:01.256Z,2.10
2023-03-01T09:08:28.125Z,2.00
2023-03-01T09:10:54.914Z,2.20
2023-03-01T09:13:21.842Z,2.30
2023-03-01T09:15:48.442Z,2.40
2023-03-01T09:18:15.062Z,2.70
2023-03-01T09:20:42.726Z,3.10
2023-03-01T09:23:09.463Z,3.10
2023-03-01T09:25:36.194Z,2.70
2023-03-01T09:28:02.878Z,2.50
2023-03-01T09:30:29.880Z,2.60
2023-03-01T09:32:58.063Z,2.70
2023-03-01T09:35:24.867Z,2.90
2023-03-01T09:37:52.234Z,2.80
2023-03-01T09:40:23.784Z,2.40
2023-03-01T09:42:56.760Z,2.80
2023-03-01T09:45:39.116Z,2.80
2023-03-01T09:48:19.633Z,3.20
2023-03-01T09:50:49.425Z,3.30
2023-03-01T09:53:19.446Z,3.70
2023-03-01T09:55:49.816Z,3.10
2023-03-01T09:58:41.221Z,2.70
2023-03-01T10:01:36.180Z,2.80
2023-03-01T10:04:20.944Z,2.90
2023-03-01T10:07:11.039Z,3.20
2023-03-01T10:09:40.350Z,3.10
2023-03-01T10:12:17.611Z,2.70
2023-03-01T10:14:59.221Z,2.90
2023-03-01T10:17:52.181Z,3.50
2023-03-01T10:20:22.245Z,3.80
2023-03-01T10:22:53.222Z,4.10
2023-03-01T10:25:43.440Z,3.70
2023-03-01T10:28:31.031Z,3.40
2023-03-01T10:31:00.032Z,3.50
2023-03-01T10:33:33.140Z,3.60
2023-03-01T10:35:59.879Z,3.40
2023-03-01T10:38:26.760Z,3.40
2023-03-01T10:41:13.596Z,3.60
2023-03-01T10:43:55.372Z,4.10
2023-03-01T10:46:32.817Z,3.80
2023-03-01T10:49:22.430Z,3.80
2023-03-01T10:51:53.632Z,3.70
2023-03-01T10:54:30.234Z,3.60
2023-03-01T10:57:02.188Z,3.70
2023-03-01T10:59:35.632Z,4.20
2023-03-01T11:02:29.811Z,4.30
2023-03-01T11:05:17.606Z,4.30
2023-03-01T11:07:54.816Z,4.50
2023-03-01T11:10:33.914Z,4.50
2023-03-01T11:13:18.862Z,4.80
2023-03-01T11:16:11.183Z,5.00
2023-03-01T11:18:47.728Z,5.10
2023-03-01T11:21:16.793Z,4.90
2023-03-01T11:23:46.842Z,4.30
2023-03-01T11:26:16.467Z,4.20
2023-03-01T11:28:45.652Z,4.60
2023-03-01T11:31:13.538Z,5.00
2023-03-01T11:34:03.731Z,4.70
2023-03-01T11:36:55.849Z,4.60
2023-03-01T11:39:36.666Z,4.60
2023-03-01T11:42:19.393Z,4.70
2023-03-01T11:44:48.985Z,4.80
2023-03-01T11:47:50.761Z,5.00
2023-03-01T11:50:21.560Z,4.70
2023-03-01T11:53:06.957Z,4.70
2023-03-01T11:55:51.282Z,5.10
2023-03-01T11:58:46.614Z,4.90
2023-03-01T12:01:13.337Z,4.80
2023-03-01T12:03:46.252Z,4.90
2023-03-01T12:06:24.881Z,4.80
2023-03-01T12:09:02.889Z,4.90
2023-03-01T12:11:42.100Z,5.20
2023-03-01T12:14:27.773Z,5.20
2023-03-01T12:17:09.935Z,5.00
2023-03-01T12:19:55.451Z,5.00
2023-03-01T12:22:40.743Z,5.20
2023-03-01T12:25:29.169Z,5.40
2023-03-01T12:28:33.954Z,5.40
2023-03-01T12:31:21.791Z,5.80
2023-03-01T12:34:25.541Z,5.50
2023-03-01T12:37:19.525Z,5.20
2023-03-01T12:40:14.855Z,5.10
2023-03-01T12:43:35.058Z,5.40
2023-03-01T12:46:08.037Z,5.60
2023-03-01T12:48:43.427Z,4.90
2023-03-01T12:51:14.884Z,4.90
2023-03-01T12:53:49.777Z,5.00
2023-03-01T12:56:18.183Z,5.20
2023-03-01T12:59:12.674Z,5.30
2023-03-01T13:02:05.256Z,5.40
2023-03-01T13:04:54.099Z,5.40
2023-03-01T13:07:21.099Z,5.50
2023-03-01T13:09:50.587Z,5.70
2023-03-01T13:12:46.483Z,5.80
2023-03-01T13:15:25.103Z,5.40
2023-03-01T13:18:26.218Z,5.30
2023-03-01T13:21:02.117Z,5.50
2023-03-01T13:23:32.748Z,5.50
2023-03-01T13:26:13.444Z,5.40
2023-03-01T13:28:46.867Z,5.30
2023-03-01T13:31:16.613Z,5.40
2023-03-01T13:33:48.530Z,5.30
2023-03-01T13:36:31.794Z,5.40
2023-03-01T13:39:04.086Z,5.50
2023-03-01T13:41:39.968Z,5.60
2023-03-01T13:44:34.563Z,5.50
2023-03-01T13:47:15.835Z,5.30
2023-03-01T13:49:51.654Z,5.70
2023-03-01T13:52:33.764Z,5.80
2023-03-01T13:55:02.588Z,5.80
2023-03-01T13:57:35.058Z,5.30
2023-03-01T14:00:01.698Z,5.40
2023-03-01T14:02:28.569Z,5.60
2023-03-01T14:05:00.435Z,5.50
2023-03-01T14:07:32.160Z,5.60
2023-03-01T14:10:03.015Z,5.70
2023-03-01T14:12:54.837Z,6.10
2023-03-01T14:15:34.288Z,6.00
2023-03-01T14:18:13.128Z,5.60
2023-03-01T14:20:48.236Z,5.50
2023-03-01T14:23:19.477Z,5.70
2023-03-01T14:25:52.387Z,5.70
2023-03-01T14:28:31.429Z,5.80
2023-03-01T14:31:00.181Z,5.70
2023-03-01T14:33:30.166Z,5.40
2023-03-01T14:36:11.832Z,5.60
2023-03-01T14:38:41.539Z,5.50
2023-03-01T14:41:19.408Z,5.70
2023-03-01T14:44:01.637Z,5.70
2023-03-01T14:46:40.786Z,5.50
2023-03-01T14:49:11.993Z,5.60
2023-03-01T14:51:41.476Z,5.60
2023-03-01T14:54:25.585Z,5.70
2023-03-01T14:56:54.099Z,5.50
2023-03-01T14:59:24.940Z,5.40
2023-03-01T15:01:54.345Z,5.40
2023-03-01T15:04:23.349Z,5.60
2023-03-01T15:06:56.008Z,5.50
2023-03-01T15:09:23.706Z,5.30
2023-03-01T15:11:50.439Z,5.30
2023-03-01T15:14:42.999Z,5.30
2023-03-01T15:17:39.088Z,5.30
2023-03-01T15:20:17.597Z,5.20
2023-03-01T15:22:50.530Z,5.20
2023-03-01T15:25:19.085Z,5.10
2023-03-01T15:27:50.781Z,5.10
2023-03-01T15:30:29.939Z,5.10
2023-03-01T15:33:21.251Z,5.00
2023-03-01T15:35:54.717Z,5.10
2023-03-01T15:38:31.327Z,5.00
2023-03-01T15:41:00.699Z,5.00
2023-03-01T15:43:46.005Z,5.00
2023-03-01T15:46:41.683Z,4.90
2023-03-01T15:49:30.600Z,4.90
2023-03-01T15:51:57.683Z,5.00
2023-03-01T15:54:27.309Z,5.00
2023-03-01T15:56:54.089Z,4.90
2023-03-01T15:59:22.960Z,4.80
2023-03-01T16:01:49.862Z,4.80
2023-03-01T16:04:23.700Z,4.80
2023-03-01T16:06:55.084Z,4.80
2023-03-01T16:09:26.214Z,4.70
2023-03-01T16:11:54.218Z,4.70
2023-03-01T16:14:21.718Z,4.60
2023-03-01T16:16:49.052Z,4.60
2023-03-01T16:19:16.458Z,4.50
2023-03-01T16:21:44.589Z,4.50
2023-03-01T16:24:11.367Z,4.40
2023-03-01T16:26:38.652Z,4.40
2023-03-01T16:29:06.300Z,4.40
2023-03-01T16:31:33.790Z,4.30
2023-03-01T16:34:00.967Z,4.30
2023-03-01T16:36:29.287Z,4.30
2023-03-01T16:38:58.802Z,4.30
2023-03-01T16:41:25.500Z,4.20
2023-03-01T16:43:52.609Z,4.20
2023-03-01T16:46:23.102Z,4.20
2023-03-01T16:48:51.947Z,4.10
2023-03-01T16:51:19.000Z,4.10
2023-03-01T16:53:47.381Z,4.10
2023-03-01T16:56:15.399Z,4.00
2023-03-01T16:58:42.756Z,3.90
2023-03-01T17:01:21.114Z,3.80
2023-03-01T17:03:49.456Z,3.70
2023-03-01T17:06:21.191Z,3.60
2023-03-01T17:08:48.419Z,3.60
2023-03-01T17:11:17.684Z,3.50
2023-03-01T17:13:44.790Z,3.50
2023-03-01T17:16:15.254Z,3.40
2023-03-01T17:18:42.161Z,3.30
2023-03-01T17:21:10.663Z,3.20
2023-03-01T17:23:39.593Z,3.10
2023-03-01T17:26:07.277Z,3.10
2023-03-01T17:28:35.636Z,2.90
2023-03-01T17:31:04.347Z,3.00
2023-03-01T17:33:31.597Z,3.00
2023-03-01T17:35:59.831Z,2.90
2023-03-01T17:38:27.298Z,2.90
2023-03-01T17:40:53.958Z,2.80
2023-03-01T17:43:20.582Z,2.70
2023-03-01T17:45:48.706Z,2.70
2023-03-01T17:48:17.054Z,2.70
2023-03-01T17:50:43.796Z,2.70
2023-03-01T17:53:11.584Z,2.80
2023-03-01T17:55:39.818Z,2.80
2023-03-01T17:58:07.443Z,2.70
2023-03-01T18:00:34.953Z,2.70
2023-03-01T18:03:01.709Z,2.60
2023-03-01T18:05:31.995Z,2.60
2023-03-01T18:07:58.708Z,2.50
2023-03-01T18:10:25.284Z,2.50
2023-03-01T18:12:52.635Z,2.50
2023-03-01T18:15:20.253Z,2.30
2023-03-01T18:17:47.777Z,2.30
2023-03-01T18:20:15.290Z,2.20
2023-03-01T18:22:41.940Z,2.20
2023-03-01T18:25:09.037Z,2.20
2023-03-01T18:27:36.895Z,2.20
2023-03-01T18:30:05.383Z,2.10
2023-03-01T18:32:32.016Z,2.10
2023-03-01T18:34:58.798Z,2.10
2023-03-01T18:37:25.449Z,2.30
2023-03-01T18:39:52.814Z,2.30
2023-03-01T18:42:20.491Z,2.20
2023-03-01T18:44:48.112Z,2.10
2023-03-01T18:47:16.159Z,2.00
2023-03-01T18:49:44.033Z,2.00
2023-03-01T18:52:11.081Z,1.90
2023-03-01T18:54:37.959Z,2.00
2023-03-01T18:57:05.030Z,1.90
2023-03-01T18:59:31.994Z,1.90
2023-03-01T19:01:58.609Z,1.70
2023-03-01T19:04:26.773Z,1.70
2023-03-01T19:06:53.862Z,1.80
2023-03-01T19:09:20.482Z,1.70
2023-03-01T19:11:47.338Z,1.60
2023-03-01T19:14:13.929Z,1.60
2023-03-01T19:16:40.618Z,1.60
2023-03-01T19:19:09.832Z,1.60
2023-03-01T19:21:37.136Z,1.60
2023-03-01T19:24:04.381Z,1.50
2023-03-01T19:26:31.909Z,1.50
2023-03-01T19:28:59.836Z,1.60
2023-03-01T19:31:28.734Z,1.50
2023-03-01T19:34:09.843Z,1.60
2023-03-01T19:36:38.187Z,1.70
2023-03-01T19:39:06.682Z,1.80
2023-03-01T19:41:34.096Z,1.80
2023-03-01T19:44:05.657Z,1.70
2023-03-01T19:46:33.559Z,1.70
2023-03-01T19:49:02.848Z,1.60
2023-03-01T19:51:30.524Z,1.60
2023-03-01T19:53:57.175Z,1.50
2023-03-01T19:56:24.104Z,1.70
2023-03-01T19:58:52.941Z,1.70
2023-03-01T20:01:22.003Z,1.70
2023-03-01T20:03:48.628Z,1.60
2023-03-01T20:06:19.855Z,1.70
2023-03-01T20:08:46.806Z,1.60
2023-03-01T20:11:16.138Z,1.60
2023-03-01T20:13:42.885Z,1.60
2023-03-01T20:16:10.271Z,1.60
2023-03-01T20:18:36.964Z,1.60
2023-03-01T20:21:09.325Z,1.60
2023-03-01T20:23:45.014Z,1.60
2023-03-01T20:26:18.907Z,1.60
2023-03-01T20:28:47.524Z,1.50
2023-03-01T20:31:15.296Z,1.50
2023-03-01T20:33:42.227Z,1.40
2023-03-01T20:36:10.031Z,1.30
2023-03-01T20:38:37.536Z,1.40
2023-03-01T20:41:10.565Z,1.30
2023-03-01T20:43:38.234Z,1.20
2023-03-01T20:46:06.403Z,1.20
2023-03-01T20:48:33.300Z,1.20
2023-03-01T20:51:01.674Z,1.10
2023-03-01T20:53:28.937Z,1.10
2023-03-01T20:55:55.574Z,1.10
2023-03-01T20:58:22.285Z,1.20
2023-03-01T21:00:52.618Z,1.20
2023-03-01T21:03:19.225Z,1.20
2023-03-01T21:05:45.804Z,1.10
2023-03-01T21:08:12.849Z,1.10
2023-03-01T21:10:39.471Z,1.10
2023-03-01T21:13:06.152Z,1.00
2023-03-01T21:15:32.819Z,1.00
2023-03-01T21:17:59.968Z,1.10
2023-03-01T21:20:26.573Z,1.20
2023-03-01T21:22:53.237Z,1.20
2023-03-01T21:25:19.820Z,1.10
2023-03-01T21:27:46.464Z,1.00
2023-03-01T21:30:13.599Z,1.00
2023-03-01T21:32:40.307Z,1.00
2023-03-01T21:35:07.206Z,0.90
2023-03-01T21:37:33.893Z,1.00
2023-03-01T21:40:00.667Z,1.10
2023-03-01T21:42:27.318Z,1.10
2023-03-01T21:44:53.928Z,1.20
2023-03-01T21:47:20.531Z,1.20
2023-03-01T21:49:47.173Z,1.10
2023-03-01T21:52:16.737Z,1.20
2023-03-01T21:54:44.309Z,1.00
2023-03-01T21:57:11.878Z,0.90
2023-03-01T21:59:38.918Z,0.90
2023-03-01T22:02:05.637Z,0.90
2023-03-01T22:04:32.317Z,0.90
2023-03-01T22:06:58.908Z,0.90
2023-03-01T22:09:26.419Z,0.90
2023-03-01T22:12:02.273Z,0.90
2023-03-01T22:14:30.957Z,0.90
2023-03-01T22:16:58.242Z,1.00
2023-03-01T22:19:26.824Z,0.90
2023-03-01T22:21:53.533Z,0.90
2023-03-01T22:24:23.421Z,0.90
2023-03-01T22:26:51.543Z,0.90
2023-03-01T22:29:27.662Z,1.00
2023-03-01T22:31:56.064Z,1.00
2023-03-01T22:34:23.328Z,1.10
2023-03-01T22:36:50.363Z,0.90
2023-03-01T22:39:19.562Z,0.80
2023-03-01T22:41:47.730Z,0.80
2023-03-01T22:44:16.602Z,0.80
2023-03-01T22:46:44.242Z,0.80
2023-03-01T22:49:11.133Z,0.70
2023-03-01T22:51:39.908Z,0.80
2023-03-01T22:54:07.391Z,0.90
2023-03-01T22:56:36.531Z,0.90
2023-03-01T22:59:13.297Z,0.90
2023-03-01T23:01:42.487Z,0.90
2023-03-01T23:04:09.292Z,0.70
2023-03-01T23:06:49.998Z,0.60
2023-03-01T23:09:18.837Z,0.70
2023-03-01T23:11:45.552Z,0.90
2023-03-01T23:14:13.550Z,1.00
2023-03-01T23:16:40.237Z,0.90
2023-03-01T23:19:06.920Z,0.90
2023-03-01T23:21:33.771Z,0.70
2023-03-01T23:24:00.571Z,0.70
2023-03-01T23:26:28.330Z,0.70
2023-03-01T23:28:56.357Z,0.70
2023-03-01T23:31:23.344Z,0.80
2023-03-01T23:33:50.065Z,0.80
2023-03-01T23:36:20.901Z,0.80
2023-03-01T23:38:49.943Z,0.80
2023-03-01T23:41:19.427Z,0.80
2023-03-01T23:43:51.105Z,0.80
2023-03-01T23:46:19.692Z,0.80
2023-03-01T23:48:47.024Z,0.80
2023-03-01T23:51:15.330Z,0.70
2023-03-01T23:53:53.880Z,0.70
2023-03-01T23:56:27.212Z,0.70
2023-03-01T23:58:55.781Z,0.80
